Time,TemperatureF,DewpointF,PressureIn,WindDirection,WindDirectionDegrees,WindSpeedMPH,WindSpeedGustMPH,Humidity,HourlyPrecipIn,Conditions,Clouds,dailyrainin,SoftwareType,DateUTC
2013-08-03 00:03:00,72.9,61.7,-100.00,North,-999,0.0,0.0,68,0.00,,,-99.99,FreeWX-Wi 1.02,2013-08-03 04:03:00,
2013-08-03 00:13:00,72.7,61.5,-100.00,North,-999,0.0,0.0,68,0.00,,,-99.99,FreeWX-Wi 1.02,2013-08-03 04:13:00,
2013-08-03 00:23:00,72.7,61.5,-100.00,North,-999,0.0,0.0,68,0.00,,,-99.99,FreeWX-Wi 1.02,2013-08-03 04:23:00,
2013-08-03 00:33:00,72.7,61.9,-100.00,North,-999,0.0,0.0,69,0.00,,,-99.99,FreeWX-Wi 1.02,2013-08-03 04:33:00,
2013-08-03 00:43:00,72.7,61.9,-100.00,North,-999,0.0,0.0,69,0.00,,,-99.99,FreeWX-Wi 1.02,2013-08-03 04:43:00,
2013-08-03 00:53:00,72.7,61.9,-100.00,North,-999,0.0,0.0,69,0.00,,,-99.99,FreeWX-Wi 1.02,2013-08-03 04:53:00,
2013-08-03 01:03:00,72.5,62.1,-100.00,North,-999,0.0,0.0,70,0.00,,,-99.99,FreeWX-Wi 1.02,2013-08-03 05:03:00,
2013-08-03 01:13:00,72.5,62.1,-100.00,North,-999,0.0,0.0,70,0.00,,,-99.99,FreeWX-Wi 1.02,2013-08-03 05:13:00,
2013-08-03 01:23:00,72.5,62.1,-100.00,North,-999,0.0,0.0,70,0.00,,,-99.99,FreeWX-Wi 1.02,2013-08-03 05:23:00,
2013-08-03 01:33:00,72.5,62.1,-100.00,North,-999,0.0,0.0,70,0.00,,,-99.99,FreeWX-Wi 1.02,2013-08-03 05:33:00,
2013-08-03 01:43:00,72.5,62.6,-100.00,North,-999,0.0,0.0,71,0.00,,,-99.99,FreeWX-Wi 1.02,2013-08-03 05:43:00,
2013-08-03 01:53:00,72.5,62.6,-100.00,North,-999,0.0,0.0,71,0.00,,,-99.99,FreeWX-Wi 1.02,2013-08-03 05:53:00,
2013-08-03 02:03:00,72.5,62.6,-100.00,North,-999,0.0,0.0,71,0.00,,,-99.99,FreeWX-Wi 1.02,2013-08-03 06:03:00,
2013-08-03 02:13:00,72.5,62.6,-100.00,North,-999,0.0,0.0,71,0.00,,,-99.99,FreeWX-Wi 1.02,2013-08-03 06:13:00,
2013-08-03 02:23:00,72.5,63.0,-100.00,North,-999,0.0,0.0,72,0.00,,,-99.99,FreeWX-Wi 1.02,2013-08-03 06:23:00,
2013-08-03 02:33:00,72.5,63.0,-100.00,North,-999,0.0,0.0,72,0.00,,,-99.99,FreeWX-Wi 1.02,2013-08-03 06:33:00,
2013-08-03 02:43:00,72.3,62.8,-100.00,North,-999,0.0,0.0,72,0.00,,,-99.99,FreeWX-Wi 1.02,2013-08-03 06:43:00,
2013-08-03 02:53:00,72.3,62.8,-100.00,North,-999,0.0,0.0,72,0.00,,,-99.99,FreeWX-Wi 1.02,2013-08-03 06:53:00,
2013-08-03 03:03:00,72.3,62.8,-100.00,North,-999,0.0,0.0,72,0.00,,,-99.99,FreeWX-Wi 1.02,2013-08-03 07:03:00,
2013-08-03 03:13:00,72.3,63.1,-100.00,North,-999,0.0,0.0,73,0.00,,,-99.99,FreeWX-Wi 1.02,2013-08-03 07:13:00,
2013-08-03 03:23:00,72.3,63.1,-100.00,North,-999,0.0,0.0,73,0.00,,,-99.99,FreeWX-Wi 1.02,2013-08-03 07:23:00,
2013-08-03 03:33:00,72.3,63.1,-100.00,North,-999,0.0,0.0,73,0.00,,,-99.99,FreeWX-Wi 1.02,2013-08-03 07:33:00,
2013-08-03 03:43:00,72.3,63.1,-100.00,North,-999,0.0,0.0,73,0.00,,,-99.99,FreeWX-Wi 1.02,2013-08-03 07:43:00,
2013-08-03 03:53:00,72.1,63.0,-100.00,North,-999,0.0,0.0,73,0.00,,,-99.99,FreeWX-Wi 1.02,2013-08-03 07:53:00,
2013-08-03 04:03:00,72.1,63.0,-100.00,North,-999,0.0,0.0,73,0.00,,,-99.99,FreeWX-Wi 1.02,2013-08-03 08:03:00,
2013-08-03 04:13:00,72.1,63.0,-100.00,North,-999,0.0,0.0,73,0.00,,,-99.99,FreeWX-Wi 1.02,2013-08-03 08:13:00,
2013-08-03 04:23:00,72.1,63.0,-100.00,North,-999,0.0,0.0,73,0.00,,,-99.99,FreeWX-Wi 1.02,2013-08-03 08:23:00,
2013-08-03 04:33:00,72.1,63.0,-100.00,North,-999,0.0,0.0,73,0.00,,,-99.99,FreeWX-Wi 1.02,2013-08-03 08:33:00,
2013-08-03 04:43:00,72.0,62.8,-100.00,North,-999,0.0,0.0,73,0.00,,,-99.99,FreeWX-Wi 1.02,2013-08-03 08:43:00,
2013-08-03 04:53:00,72.0,63.1,-100.00,North,-999,0.0,0.0,74,0.00,,,-99.99,FreeWX-Wi 1.02,2013-08-03 08:53:00,
2013-08-03 05:03:00,72.0,63.1,-100.00,North,-999,0.0,0.0,74,0.00,,,-99.99,FreeWX-Wi 1.02,2013-08-03 09:03:00,
2013-08-03 05:13:00,72.0,63.1,-100.00,North,-999,0.0,0.0,74,0.00,,,-99.99,FreeWX-Wi 1.02,2013-08-03 09:13:00,
2013-08-03 05:23:00,72.0,63.1,-100.00,North,-999,0.0,0.0,74,0.00,,,-99.99,FreeWX-Wi 1.02,2013-08-03 09:23:00,
2013-08-03 05:33:00,72.0,63.1,-100.00,North,-999,0.0,0.0,74,0.00,,,-99.99,FreeWX-Wi 1.02,2013-08-03 09:33:00,
2013-08-03 05:43:00,72.0,63.1,-100.00,North,-999,0.0,0.0,74,0.00,,,-99.99,FreeWX-Wi 1.02,2013-08-03 09:43:00,
2013-08-03 05:53:00,71.8,63.0,-100.00,North,-999,0.0,0.0,74,0.00,,,-99.99,FreeWX-Wi 1.02,2013-08-03 09:53:00,
2013-08-03 06:03:00,71.8,63.0,-100.00,North,-999,0.0,0.0,74,0.00,,,-99.99,FreeWX-Wi 1.02,2013-08-03 10:03:00,
2013-08-03 06:13:00,71.8,63.0,-100.00,North,-999,0.0,0.0,74,0.00,,,-99.99,FreeWX-Wi 1.02,2013-08-03 10:13:00,
2013-08-03 06:23:00,71.8,63.0,-100.00,North,-999,0.0,0.0,74,0.00,,,-99.99,FreeWX-Wi 1.02,2013-08-03 10:23:00,
2013-08-03 06:33:00,72.0,63.1,-100.00,North,-999,0.0,0.0,74,0.00,,,-99.99,FreeWX-Wi 1.02,2013-08-03 10:33:00,
2013-08-03 06:43:00,72.0,63.1,-100.00,North,-999,0.0,0.0,74,0.00,,,-99.99,FreeWX-Wi 1.02,2013-08-03 10:43:00,
2013-08-03 06:53:00,72.0,63.1,-100.00,North,-999,0.0,0.0,74,0.00,,,-99.99,FreeWX-Wi 1.02,2013-08-03 10:53:00,
2013-08-03 07:03:00,72.3,63.9,-100.00,North,-999,0.0,0.0,75,0.00,,,-99.99,FreeWX-Wi 1.02,2013-08-03 11:03:00,
2013-08-03 07:13:00,72.5,64.0,-100.00,North,-999,0.0,0.0,75,0.00,,,-99.99,FreeWX-Wi 1.02,2013-08-03 11:13:00,
2013-08-03 07:23:00,72.7,64.2,-100.00,North,-999,0.0,0.0,75,0.00,,,-99.99,FreeWX-Wi 1.02,2013-08-03 11:23:00,
2013-08-03 07:33:00,72.9,64.4,-100.00,North,-999,0.0,0.0,75,0.00,,,-99.99,FreeWX-Wi 1.02,2013-08-03 11:33:00,
2013-08-03 07:43:00,73.0,64.6,-100.00,North,-999,0.0,0.0,75,0.00,,,-99.99,FreeWX-Wi 1.02,2013-08-03 11:43:00,
2013-08-03 07:53:00,73.6,65.1,-100.00,North,-999,0.0,0.0,75,0.00,,,-99.99,FreeWX-Wi 1.02,2013-08-03 11:53:00,
2013-08-03 08:03:00,73.8,65.3,-100.00,North,-999,0.0,0.0,75,0.00,,,-99.99,FreeWX-Wi 1.02,2013-08-03 12:03:00,
2013-08-03 08:12:00,74.1,65.7,-100.00,North,-999,0.0,0.0,75,0.00,,,-99.99,FreeWX-Wi 1.02,2013-08-03 12:12:00,
2013-08-03 08:23:00,74.1,65.7,-100.00,North,-999,0.0,0.0,75,0.00,,,-99.99,FreeWX-Wi 1.02,2013-08-03 12:23:00,
2013-08-03 08:33:00,74.5,66.0,-100.00,North,-999,0.0,0.0,75,0.00,,,-99.99,FreeWX-Wi 1.02,2013-08-03 12:33:00,
2013-08-03 08:42:00,74.7,66.2,-100.00,North,-999,0.0,0.0,75,0.00,,,-99.99,FreeWX-Wi 1.02,2013-08-03 12:42:00,
2013-08-03 08:53:00,74.8,66.4,-100.00,North,-999,0.0,0.0,75,0.00,,,-99.99,FreeWX-Wi 1.02,2013-08-03 12:53:00,
2013-08-03 09:03:00,75.0,66.6,-100.00,North,-999,0.0,0.0,75,0.00,,,-99.99,FreeWX-Wi 1.02,2013-08-03 13:03:00,
2013-08-03 09:13:00,75.4,66.9,-100.00,North,-999,0.0,0.0,75,0.00,,,-99.99,FreeWX-Wi 1.02,2013-08-03 13:13:00,
2013-08-03 09:22:00,75.6,67.1,-100.00,North,-999,0.0,0.0,75,0.00,,,-99.99,FreeWX-Wi 1.02,2013-08-03 13:22:00,
2013-08-03 09:33:00,75.7,67.3,-100.00,North,-999,0.0,0.0,75,0.00,,,-99.99,FreeWX-Wi 1.02,2013-08-03 13:33:00,
2013-08-03 09:43:00,75.9,67.5,-100.00,North,-999,0.0,0.0,75,0.00,,,-99.99,FreeWX-Wi 1.02,2013-08-03 13:43:00,
2013-08-03 09:53:00,76.1,67.6,-100.00,North,-999,0.0,0.0,75,0.00,,,-99.99,FreeWX-Wi 1.02,2013-08-03 13:53:00,
2013-08-03 10:03:00,76.5,68.0,-100.00,North,-999,0.0,0.0,75,0.00,,,-99.99,FreeWX-Wi 1.02,2013-08-03 14:03:00,
2013-08-03 10:12:00,76.6,68.2,-100.00,North,-999,0.0,0.0,75,0.00,,,-99.99,FreeWX-Wi 1.02,2013-08-03 14:12:00,
2013-08-03 10:22:00,77.0,68.5,-100.00,North,-999,0.0,0.0,75,0.00,,,-99.99,FreeWX-Wi 1.02,2013-08-03 14:22:00,
2013-08-03 10:33:00,77.2,68.5,-100.00,North,-999,0.0,0.0,75,0.00,,,-99.99,FreeWX-Wi 1.02,2013-08-03 14:33:00,
2013-08-03 10:43:00,77.4,68.7,-100.00,North,-999,0.0,0.0,75,0.00,,,-99.99,FreeWX-Wi 1.02,2013-08-03 14:43:00,
2013-08-03 10:53:00,77.7,69.1,-100.00,North,-999,0.0,0.0,75,0.00,,,-99.99,FreeWX-Wi 1.02,2013-08-03 14:53:00,
2013-08-03 11:02:00,77.9,69.3,-100.00,North,-999,0.0,0.0,75,0.00,,,-99.99,FreeWX-Wi 1.02,2013-08-03 15:02:00,
2013-08-03 11:13:00,78.3,69.6,-100.00,North,-999,0.0,0.0,75,0.00,,,-99.99,FreeWX-Wi 1.02,2013-08-03 15:13:00,
2013-08-03 11:22:00,78.8,69.8,-100.00,North,-999,0.0,0.0,74,0.00,,,-99.99,FreeWX-Wi 1.02,2013-08-03 15:22:00,
2013-08-03 11:32:00,79.0,70.0,-100.00,North,-999,0.0,0.0,74,0.00,,,-99.99,FreeWX-Wi 1.02,2013-08-03 15:32:00,
2013-08-03 11:42:00,79.2,70.2,-100.00,North,-999,0.0,0.0,74,0.00,,,-99.99,FreeWX-Wi 1.02,2013-08-03 15:42:00,
2013-08-03 11:53:00,79.5,70.5,-100.00,North,-999,0.0,0.0,74,0.00,,,-99.99,FreeWX-Wi 1.02,2013-08-03 15:53:00,
2013-08-03 12:03:00,80.1,71.1,-100.00,North,-999,0.0,0.0,74,0.00,,,-99.99,FreeWX-Wi 1.02,2013-08-03 16:03:00,
2013-08-03 12:13:00,80.8,71.2,-100.00,North,-999,0.0,0.0,73,0.00,,,-99.99,FreeWX-Wi 1.02,2013-08-03 16:13:00,
2013-08-03 12:23:00,81.1,71.2,-100.00,North,-999,0.0,0.0,72,0.00,,,-99.99,FreeWX-Wi 1.02,2013-08-03 16:23:00,
2013-08-03 12:33:00,81.3,70.5,-100.00,North,-999,0.0,0.0,70,0.00,,,-99.99,FreeWX-Wi 1.02,2013-08-03 16:33:00,
2013-08-03 12:43:00,81.1,70.0,-100.00,North,-999,0.0,4.0,69,0.00,,,-99.99,FreeWX-Wi 1.02,2013-08-03 16:43:00,
2013-08-03 12:53:00,81.0,69.4,-100.00,North,-999,0.0,0.0,68,0.00,,,-99.99,FreeWX-Wi 1.02,2013-08-03 16:53:00,
2013-08-03 13:03:00,81.0,68.9,-100.00,North,-999,0.0,0.0,67,0.00,,,-99.99,FreeWX-Wi 1.02,2013-08-03 17:03:00,
2013-08-03 13:13:00,81.3,69.3,-100.00,North,-999,0.0,0.0,67,0.00,,,-99.99,FreeWX-Wi 1.02,2013-08-03 17:13:00,
2013-08-03 13:23:00,81.5,69.4,-100.00,North,-999,0.0,0.0,67,0.00,,,-99.99,FreeWX-Wi 1.02,2013-08-03 17:23:00,
2013-08-03 13:33:00,82.2,70.2,-100.00,North,-999,0.0,4.0,67,0.00,,,-99.99,FreeWX-Wi 1.02,2013-08-03 17:33:00,
2013-08-03 13:43:00,82.0,69.6,-100.00,North,-999,0.0,0.0,66,0.00,,,-99.99,FreeWX-Wi 1.02,2013-08-03 17:43:00,
2013-08-03 13:53:00,81.9,68.9,-100.00,North,-999,0.0,0.0,65,0.00,,,-99.99,FreeWX-Wi 1.02,2013-08-03 17:53:00,
2013-08-03 14:03:00,81.9,68.9,-100.00,North,-999,0.0,0.0,65,0.00,,,-99.99,FreeWX-Wi 1.02,2013-08-03 18:03:00,
2013-08-03 14:13:00,82.0,68.7,-100.00,North,-999,0.0,0.0,64,0.00,,,-99.99,FreeWX-Wi 1.02,2013-08-03 18:13:00,
2013-08-03 14:23:00,82.2,68.7,-100.00,North,-999,0.0,0.0,64,0.00,,,-99.99,FreeWX-Wi 1.02,2013-08-03 18:23:00,
2013-08-03 14:32:00,82.6,68.7,-100.00,North,-999,0.0,0.0,63,0.00,,,-99.99,FreeWX-Wi 1.02,2013-08-03 18:32:00,
2013-08-03 14:43:00,82.8,68.4,-100.00,North,-999,0.0,0.0,62,0.00,,,-99.99,FreeWX-Wi 1.02,2013-08-03 18:43:00,
2013-08-03 14:53:00,82.8,67.8,-100.00,North,-999,0.0,0.0,61,0.00,,,-99.99,FreeWX-Wi 1.02,2013-08-03 18:53:00,
2013-08-03 15:03:00,82.6,67.8,-100.00,North,-999,0.0,0.0,61,0.00,,,-99.99,FreeWX-Wi 1.02,2013-08-03 19:03:00,
2013-08-03 15:12:00,82.2,67.5,-100.00,North,-999,0.0,0.0,61,0.00,,,-99.99,FreeWX-Wi 1.02,2013-08-03 19:12:00,
2013-08-03 15:22:00,81.7,66.9,-100.00,North,-999,0.0,0.0,61,0.00,,,-99.99,FreeWX-Wi 1.02,2013-08-03 19:22:00,
2013-08-03 15:32:00,81.1,66.9,-100.00,North,-999,0.0,0.0,62,0.00,,,-99.99,FreeWX-Wi 1.02,2013-08-03 19:32:00,
2013-08-03 15:43:00,80.8,66.6,-100.00,North,-999,0.0,0.0,62,0.00,,,-99.99,FreeWX-Wi 1.02,2013-08-03 19:43:00,
2013-08-03 15:52:00,80.8,66.9,-100.00,North,-999,0.0,0.0,63,0.00,,,-99.99,FreeWX-Wi 1.02,2013-08-03 19:52:00,
2013-08-03 16:03:00,81.0,67.6,-100.00,North,-999,0.0,0.0,64,0.00,,,-99.99,FreeWX-Wi 1.02,2013-08-03 20:03:00,
2013-08-03 16:13:00,81.3,68.0,-100.00,North,-999,0.0,0.0,64,0.00,,,-99.99,FreeWX-Wi 1.02,2013-08-03 20:13:00,
2013-08-03 16:22:00,81.7,68.4,-100.00,North,-999,0.0,0.0,64,0.00,,,-99.99,FreeWX-Wi 1.02,2013-08-03 20:22:00,
2013-08-03 16:32:00,81.9,67.5,-100.00,North,-999,0.0,0.0,62,0.00,,,-99.99,FreeWX-Wi 1.02,2013-08-03 20:32:00,
2013-08-03 16:43:00,81.7,66.9,-100.00,North,-999,0.0,0.0,61,0.00,,,-99.99,FreeWX-Wi 1.02,2013-08-03 20:43:00,
2013-08-03 16:53:00,81.7,66.9,-100.00,North,-999,0.0,0.0,61,0.00,,,-99.99,FreeWX-Wi 1.02,2013-08-03 20:53:00,
2013-08-03 17:03:00,81.5,66.7,-100.00,North,-999,0.0,0.0,61,0.00,,,-99.99,FreeWX-Wi 1.02,2013-08-03 21:03:00,
2013-08-03 17:13:00,81.3,67.1,-100.00,North,-999,0.0,0.0,62,0.00,,,-99.99,FreeWX-Wi 1.02,2013-08-03 21:13:00,
2013-08-03 17:23:00,81.1,66.9,-100.00,North,-999,0.0,0.0,62,0.00,,,-99.99,FreeWX-Wi 1.02,2013-08-03 21:23:00,
2013-08-03 17:33:00,81.0,66.7,-100.00,North,-999,0.0,0.0,62,0.00,,,-99.99,FreeWX-Wi 1.02,2013-08-03 21:33:00,
2013-08-03 17:43:00,80.8,66.6,-100.00,North,-999,0.0,0.0,62,0.00,,,-99.99,FreeWX-Wi 1.02,2013-08-03 21:43:00,
2013-08-03 17:53:00,80.4,66.6,-100.00,North,-999,0.0,0.0,63,0.00,,,-99.99,FreeWX-Wi 1.02,2013-08-03 21:53:00,
2013-08-03 18:03:00,80.2,66.6,-100.00,North,-999,0.0,0.0,63,0.00,,,-99.99,FreeWX-Wi 1.02,2013-08-03 22:03:00,
2013-08-03 18:13:00,80.2,66.6,-100.00,North,-999,0.0,0.0,63,0.00,,,-99.99,FreeWX-Wi 1.02,2013-08-03 22:13:00,
2013-08-03 18:22:00,80.2,66.9,-100.00,North,-999,0.0,0.0,64,0.00,,,-99.99,FreeWX-Wi 1.02,2013-08-03 22:22:00,
2013-08-03 18:32:00,80.1,66.7,-100.00,North,-999,0.0,0.0,64,0.00,,,-99.99,FreeWX-Wi 1.02,2013-08-03 22:32:00,
2013-08-03 18:42:00,79.9,67.1,-100.00,North,-999,0.0,0.0,65,0.00,,,-99.99,FreeWX-Wi 1.02,2013-08-03 22:42:00,
2013-08-03 18:52:00,79.7,66.9,-100.00,North,-999,0.0,0.0,65,0.00,,,-99.99,FreeWX-Wi 1.02,2013-08-03 22:52:00,
2013-08-03 19:02:00,79.3,66.6,-100.00,North,-999,0.0,0.0,65,0.00,,,-99.99,FreeWX-Wi 1.02,2013-08-03 23:02:00,
2013-08-03 19:12:00,79.0,66.2,-100.00,North,-999,0.0,0.0,65,0.00,,,-99.99,FreeWX-Wi 1.02,2013-08-03 23:12:00,
2013-08-03 19:22:00,78.3,66.0,-100.00,North,-999,0.0,0.0,66,0.00,,,-99.99,FreeWX-Wi 1.02,2013-08-03 23:22:00,
2013-08-03 19:32:00,77.4,65.1,-100.00,North,-999,0.0,2.2,66,0.00,,,-99.99,FreeWX-Wi 1.02,2013-08-03 23:32:00,
2013-08-03 19:42:00,76.1,63.9,-100.00,North,-999,0.0,0.0,66,0.00,,,-99.99,FreeWX-Wi 1.02,2013-08-03 23:42:00,
2013-08-03 19:52:00,75.7,64.0,-100.00,North,-999,0.0,0.0,67,0.00,,,-99.99,FreeWX-Wi 1.02,2013-08-03 23:52:00,
2013-08-03 20:02:00,75.4,63.7,-100.00,North,-999,0.0,0.0,67,0.00,,,-99.99,FreeWX-Wi 1.02,2013-08-04 00:02:00,
2013-08-03 20:12:00,75.0,63.7,-100.00,North,-999,0.0,0.0,68,0.00,,,-99.99,FreeWX-Wi 1.02,2013-08-04 00:12:00,
2013-08-03 20:22:00,74.8,63.5,-100.00,North,-999,0.0,0.0,68,0.00,,,-99.99,FreeWX-Wi 1.02,2013-08-04 00:22:00,
2013-08-03 20:32:00,74.1,63.3,-100.00,North,-999,0.0,0.0,69,0.00,,,-99.99,FreeWX-Wi 1.02,2013-08-04 00:32:00,
2013-08-03 20:42:00,73.8,63.0,-100.00,North,-999,0.0,0.0,69,0.00,,,-99.99,FreeWX-Wi 1.02,2013-08-04 00:42:00,
2013-08-03 20:52:00,73.6,63.1,-100.00,North,-999,0.0,0.0,70,0.00,,,-99.99,FreeWX-Wi 1.02,2013-08-04 00:52:00,
2013-08-03 21:02:00,73.4,63.0,-100.00,North,-999,0.0,0.0,70,0.00,,,-99.99,FreeWX-Wi 1.02,2013-08-04 01:02:00,
2013-08-03 21:12:00,73.4,63.0,-100.00,North,-999,0.0,0.0,70,0.00,,,-99.99,FreeWX-Wi 1.02,2013-08-04 01:12:00,
2013-08-03 21:22:00,73.4,63.0,-100.00,North,-999,0.0,0.0,70,0.00,,,-99.99,FreeWX-Wi 1.02,2013-08-04 01:22:00,
2013-08-03 21:32:00,73.2,63.3,-100.00,North,-999,0.0,0.0,71,0.00,,,-99.99,FreeWX-Wi 1.02,2013-08-04 01:32:00,
2013-08-03 21:42:00,73.0,63.1,-100.00,North,-999,0.0,0.0,71,0.00,,,-99.99,FreeWX-Wi 1.02,2013-08-04 01:42:00,
2013-08-03 21:52:00,72.9,63.3,-100.00,North,-999,0.0,0.0,72,0.00,,,-99.99,FreeWX-Wi 1.02,2013-08-04 01:52:00,
2013-08-03 22:02:00,72.9,63.3,-100.00,North,-999,0.0,0.0,72,0.00,,,-99.99,FreeWX-Wi 1.02,2013-08-04 02:02:00,
2013-08-03 22:12:00,72.7,63.1,-100.00,North,-999,0.0,0.0,72,0.00,,,-99.99,FreeWX-Wi 1.02,2013-08-04 02:12:00,
2013-08-03 22:22:00,72.7,63.1,-100.00,North,-999,0.0,0.0,72,0.00,,,-99.99,FreeWX-Wi 1.02,2013-08-04 02:22:00,
2013-08-03 22:32:00,72.5,63.3,-100.00,North,-999,0.0,0.0,73,0.00,,,-99.99,FreeWX-Wi 1.02,2013-08-04 02:32:00,
2013-08-03 22:42:00,72.3,63.1,-100.00,North,-999,0.0,0.0,73,0.00,,,-99.99,FreeWX-Wi 1.02,2013-08-04 02:42:00,
2013-08-03 22:52:00,72.1,63.0,-100.00,North,-999,0.0,0.0,73,0.00,,,-99.99,FreeWX-Wi 1.02,2013-08-04 02:52:00,
2013-08-03 23:02:00,72.1,63.0,-100.00,North,-999,0.0,0.0,73,0.00,,,-99.99,FreeWX-Wi 1.02,2013-08-04 03:02:00,
2013-08-03 23:12:00,72.0,62.8,-100.00,North,-999,0.0,0.0,73,0.00,,,-99.99,FreeWX-Wi 1.02,2013-08-04 03:12:00,
2013-08-03 23:22:00,72.0,62.8,-100.00,North,-999,0.0,0.0,73,0.00,,,-99.99,FreeWX-Wi 1.02,2013-08-04 03:22:00,
2013-08-03 23:32:00,72.0,63.1,-100.00,North,-999,0.0,0.0,74,0.00,,,-99.99,FreeWX-Wi 1.02,2013-08-04 03:32:00,
2013-08-03 23:42:00,71.8,63.0,-100.00,North,-999,0.0,0.0,74,0.00,,,-99.99,FreeWX-Wi 1.02,2013-08-04 03:42:00,
2013-08-03 23:52:00,71.8,63.0,-100.00,North,-999,0.0,0.0,74,0.00,,,-99.99,FreeWX-Wi 1.02,2013-08-04 03:52:00,